sensor_id;sensor_type;location;lat;lon;timestamp;temperature;humidity
4058;DHT22;2044;48.692;9.020;2023-01-19T00:01:00;-4.10;99.90
4058;DHT22;2044;48.692;9.020;2023-01-19T00:03:27;-4.10;99.90
4058;DHT22;2044;48.692;9.020;2023-01-19T00:05:53;-4.00;99.90
4058;DHT22;2044;48.692;9.020;2023-01-19T00:08:20;-4.10;99.90
4058;DHT22;2044;48.692;9.020;2023-01-19T00:10:48;-4.10;99.90
4058;DHT22;2044;48.692;9.020;2023-01-19T00:13:15;-4.10;99.90
4058;DHT22;2044;48.692;9.020;2023-01-19T00:15:43;-4.20;99.90
4058;DHT22;2044;48.692;9.020;2023-01-19T00:18:10;-4.30;99.90
4058;DHT22;2044;48.692;9.020;2023-01-19T00:20:37;-4.40;99.90
4058;DHT22;2044;48.692;9.020;2023-01-19T00:23:04;-4.60;99.90
4058;DHT22;2044;48.692;9.020;2023-01-19T00:25:32;-4.60;99.90
4058;DHT22;2044;48.692;9.020;2023-01-19T00:27:59;-4.60;99.90
4058;DHT22;2044;48.692;9.020;2023-01-19T00:30:26;-4.60;99.90
4058;DHT22;2044;48.692;9.020;2023-01-19T00:32:54;-4.60;99.90
4058;DHT22;2044;48.692;9.020;2023-01-19T00:35:20;-4.60;99.90
4058;DHT22;2044;48.692;9.020;2023-01-19T00:37:47;-4.70;99.90
4058;DHT22;2044;48.692;9.020;2023-01-19T00:40:14;-4.70;99.90
4058;DHT22;2044;48.692;9.020;2023-01-19T00:42:41;-4.80;99.90
4058;DHT22;2044;48.692;9.020;2023-01-19T00:45:10;-4.70;99.90
4058;DHT22;2044;48.692;9.020;2023-01-19T00:47:37;-4.80;99.90
4058;DHT22;2044;48.692;9.020;2023-01-19T00:50:07;-4.80;99.90
4058;DHT22;2044;48.692;9.020;2023-01-19T00:52:36;-4.60;99.90
4058;DHT22;2044;48.692;9.020;2023-01-19T00:55:03;-4.60;99.90
4058;DHT22;2044;48.692;9.020;2023-01-19T00:57:30;-4.70;99.90
4058;DHT22;2044;48.692;9.020;2023-01-19T00:59:57;-4.60;99.90
4058;DHT22;2044;48.692;9.020;2023-01-19T01:02:23;-4.70;99.90
4058;DHT22;2044;48.692;9.020;2023-01-19T01:04:50;-4.70;99.90
4058;DHT22;2044;48.692;9.020;2023-01-19T01:07:21;-4.80;99.90
4058;DHT22;2044;48.692;9.020;2023-01-19T01:09:48;-4.80;99.90
4058;DHT22;2044;48.692;9.020;2023-01-19T01:12:15;-4.80;99.90
4058;DHT22;2044;48.692;9.020;2023-01-19T01:14:41;-4.70;99.90
4058;DHT22;2044;48.692;9.020;2023-01-19T01:17:08;-4.80;99.90
4058;DHT22;2044;48.692;9.020;2023-01-19T01:19:36;-4.70;99.90
4058;DHT22;2044;48.692;9.020;2023-01-19T01:22:03;-4.80;99.90
4058;DHT22;2044;48.692;9.020;2023-01-19T01:24:31;-4.70;99.90
4058;DHT22;2044;48.692;9.020;2023-01-19T01:26:57;-4.70;99.90
4058;DHT22;2044;48.692;9.020;2023-01-19T01:29:24;-4.80;99.90
4058;DHT22;2044;48.692;9.020;2023-01-19T01:31:51;-4.80;99.90
4058;DHT22;2044;48.692;9.020;2023-01-19T01:34:18;-4.70;99.90
4058;DHT22;2044;48.692;9.020;2023-01-19T01:36:44;-4.60;99.90
4058;DHT22;2044;48.692;9.020;2023-01-19T01:39:11;-4.60;99.90
4058;DHT22;2044;48.692;9.020;2023-01-19T01:41:39;-4.60;99.90
4058;DHT22;2044;48.692;9.020;2023-01-19T01:47:14;-4.70;99.90
4058;DHT22;2044;48.692;9.020;2023-01-19T01:49:42;-4.80;99.90
4058;DHT22;2044;48.692;9.020;2023-01-19T01:52:10;-4.40;99.90
4058;DHT22;2044;48.692;9.020;2023-01-19T01:54:37;-5.00;99.90
4058;DHT22;2044;48.692;9.020;2023-01-19T01:57:07;-5.10;99.90
4058;DHT22;2044;48.692;9.020;2023-01-19T01:59:41;-4.90;99.90
4058;DHT22;2044;48.692;9.020;2023-01-19T02:02:11;-4.80;99.90
4058;DHT22;2044;48.692;9.020;2023-01-19T02:05:00;-4.60;99.90
4058;DHT22;2044;48.692;9.020;2023-01-19T02:07:34;-4.50;99.90
4058;DHT22;2044;48.692;9.020;2023-01-19T02:10:20;-4.50;99.90
4058;DHT22;2044;48.692;9.020;2023-01-19T02:13:06;-4.40;99.90
4058;DHT22;2044;48.692;9.020;2023-01-19T02:15:43;-4.30;99.90
4058;DHT22;2044;48.692;9.020;2023-01-19T02:18:10;-4.40;99.90
4058;DHT22;2044;48.692;9.020;2023-01-19T02:20:40;-4.40;99.90
4058;DHT22;2044;48.692;9.020;2023-01-19T02:23:17;-4.30;99.90
4058;DHT22;2044;48.692;9.020;2023-01-19T02:25:47;-4.30;99.90
4058;DHT22;2044;48.692;9.020;2023-01-19T02:28:14;-4.30;99.90
4058;DHT22;2044;48.692;9.020;2023-01-19T02:30:42;-4.10;99.90
4058;DHT22;2044;48.692;9.020;2023-01-19T02:33:10;-4.30;99.90
4058;DHT22;2044;48.692;9.020;2023-01-19T02:35:37;-4.20;99.90
4058;DHT22;2044;48.692;9.020;2023-01-19T02:38:05;-4.30;99.90
4058;DHT22;2044;48.692;9.020;2023-01-19T02:40:33;-4.30;99.90
4058;DHT22;2044;48.692;9.020;2023-01-19T02:43:03;-4.40;99.90
4058;DHT22;2044;48.692;9.020;2023-01-19T02:45:33;-4.40;99.90
4058;DHT22;2044;48.692;9.020;2023-01-19T02:48:02;-4.40;99.90
4058;DHT22;2044;48.692;9.020;2023-01-19T02:50:38;-4.40;99.90
4058;DHT22;2044;48.692;9.020;2023-01-19T02:53:17;-4.60;99.90
4058;DHT22;2044;48.692;9.020;2023-01-19T02:55:48;-4.60;99.90
4058;DHT22;2044;48.692;9.020;2023-01-19T02:58:23;-4.70;99.90
4058;DHT22;2044;48.692;9.020;2023-01-19T03:00:54;-4.70;99.90
4058;DHT22;2044;48.692;9.020;2023-01-19T03:03:29;-4.70;99.90
4058;DHT22;2044;48.692;9.020;2023-01-19T03:06:02;-4.70;99.90
4058;DHT22;2044;48.692;9.020;2023-01-19T03:08:40;-4.60;99.90
4058;DHT22;2044;48.692;9.020;2023-01-19T03:11:09;-4.40;99.90
4058;DHT22;2044;48.692;9.020;2023-01-19T03:13:43;-4.50;99.90
4058;DHT22;2044;48.692;9.020;2023-01-19T03:16:14;-4.40;99.90
4058;DHT22;2044;48.692;9.020;2023-01-19T03:18:45;-4.40;99.90
4058;DHT22;2044;48.692;9.020;2023-01-19T03:21:14;-4.30;99.90
4058;DHT22;2044;48.692;9.020;2023-01-19T03:23:44;-4.30;99.90
4058;DHT22;2044;48.692;9.020;2023-01-19T03:26:13;-4.40;99.90
4058;DHT22;2044;48.692;9.020;2023-01-19T03:28:43;-4.30;99.90
4058;DHT22;2044;48.692;9.020;2023-01-19T03:31:14;-4.40;99.90
4058;DHT22;2044;48.692;9.020;2023-01-19T03:33:45;-4.40;99.90
4058;DHT22;2044;48.692;9.020;2023-01-19T03:36:19;-4.40;99.90
4058;DHT22;2044;48.692;9.020;2023-01-19T03:38:48;-4.50;99.90
4058;DHT22;2044;48.692;9.020;2023-01-19T03:41:17;-4.60;99.90
4058;DHT22;2044;48.692;9.020;2023-01-19T03:43:46;-4.80;99.90
4058;DHT22;2044;48.692;9.020;2023-01-19T03:46:15;-4.70;99.90
4058;DHT22;2044;48.692;9.020;2023-01-19T03:48:43;-4.70;99.90
4058;DHT22;2044;48.692;9.020;2023-01-19T03:51:11;-4.80;99.90
4058;DHT22;2044;48.692;9.020;2023-01-19T03:53:37;-4.80;99.90
4058;DHT22;2044;48.692;9.020;2023-01-19T03:56:05;-4.80;99.90
4058;DHT22;2044;48.692;9.020;2023-01-19T03:58:32;-4.80;99.90
4058;DHT22;2044;48.692;9.020;2023-01-19T04:01:00;-4.80;99.90
4058;DHT22;2044;48.692;9.020;2023-01-19T04:03:28;-4.80;99.90
4058;DHT22;2044;48.692;9.020;2023-01-19T04:05:55;-4.80;99.90
4058;DHT22;2044;48.692;9.020;2023-01-19T04:08:22;-4.80;99.90
4058;DHT22;2044;48.692;9.020;2023-01-19T04:10:49;-4.90;99.90
4058;DHT22;2044;48.692;9.020;2023-01-19T04:13:15;-4.90;99.90
4058;DHT22;2044;48.692;9.020;2023-01-19T04:15:42;-4.90;99.90
4058;DHT22;2044;48.692;9.020;2023-01-19T04:18:10;-4.80;99.90
4058;DHT22;2044;48.692;9.020;2023-01-19T04:20:37;-4.80;99.90
4058;DHT22;2044;48.692;9.020;2023-01-19T04:23:03;-4.80;99.90
4058;DHT22;2044;48.692;9.020;2023-01-19T04:25:30;-4.80;99.90
4058;DHT22;2044;48.692;9.020;2023-01-19T04:27:57;-4.80;99.90
4058;DHT22;2044;48.692;9.020;2023-01-19T04:30:24;-4.80;99.90
4058;DHT22;2044;48.692;9.020;2023-01-19T04:32:51;-4.70;99.90
4058;DHT22;2044;48.692;9.020;2023-01-19T04:35:21;-4.70;99.90
4058;DHT22;2044;48.692;9.020;2023-01-19T04:37:48;-4.70;99.90
4058;DHT22;2044;48.692;9.020;2023-01-19T04:40:15;-4.60;99.90
4058;DHT22;2044;48.692;9.020;2023-01-19T04:42:42;-4.50;99.90
4058;DHT22;2044;48.692;9.020;2023-01-19T04:45:10;-4.50;99.90
4058;DHT22;2044;48.692;9.020;2023-01-19T04:47:37;-4.50;99.90
4058;DHT22;2044;48.692;9.020;2023-01-19T04:50:04;-4.40;99.90
4058;DHT22;2044;48.692;9.020;2023-01-19T04:52:33;-4.40;99.90
4058;DHT22;2044;48.692;9.020;2023-01-19T04:55:00;-4.40;99.90
4058;DHT22;2044;48.692;9.020;2023-01-19T04:57:27;-4.40;99.90
4058;DHT22;2044;48.692;9.020;2023-01-19T04:59:54;-4.30;99.90
4058;DHT22;2044;48.692;9.020;2023-01-19T05:02:21;-4.30;99.90
4058;DHT22;2044;48.692;9.020;2023-01-19T05:04:48;-4.20;99.90
4058;DHT22;2044;48.692;9.020;2023-01-19T05:07:14;-4.20;99.90
4058;DHT22;2044;48.692;9.020;2023-01-19T05:09:42;-4.10;99.90
4058;DHT22;2044;48.692;9.020;2023-01-19T05:12:09;-4.10;97.50
4058;DHT22;2044;48.692;9.020;2023-01-19T05:14:36;-4.30;99.90
4058;DHT22;2044;48.692;9.020;2023-01-19T05:17:03;-4.30;94.70
4058;DHT22;2044;48.692;9.020;2023-01-19T05:19:30;-4.50;90.70
4058;DHT22;2044;48.692;9.020;2023-01-19T05:21:56;-4.60;95.80
4058;DHT22;2044;48.692;9.020;2023-01-19T05:24:23;-4.60;99.60
4058;DHT22;2044;48.692;9.020;2023-01-19T05:26:51;-4.60;99.90
4058;DHT22;2044;48.692;9.020;2023-01-19T05:29:18;-4.60;99.90
4058;DHT22;2044;48.692;9.020;2023-01-19T05:31:44;-4.60;99.90
4058;DHT22;2044;48.692;9.020;2023-01-19T05:34:11;-4.60;99.90
4058;DHT22;2044;48.692;9.020;2023-01-19T05:36:39;-4.70;99.90
4058;DHT22;2044;48.692;9.020;2023-01-19T05:39:05;-4.70;99.90
4058;DHT22;2044;48.692;9.020;2023-01-19T05:41:32;-4.70;99.90
4058;DHT22;2044;48.692;9.020;2023-01-19T05:44:00;-4.80;99.90
4058;DHT22;2044;48.692;9.020;2023-01-19T05:46:27;-4.90;99.90
4058;DHT22;2044;48.692;9.020;2023-01-19T05:48:53;-4.90;99.90
4058;DHT22;2044;48.692;9.020;2023-01-19T05:51:20;-4.90;99.90
4058;DHT22;2044;48.692;9.020;2023-01-19T05:53:47;-5.00;99.90
4058;DHT22;2044;48.692;9.020;2023-01-19T05:56:13;-5.00;99.90
4058;DHT22;2044;48.692;9.020;2023-01-19T05:58:40;-5.00;99.90
4058;DHT22;2044;48.692;9.020;2023-01-19T06:01:09;-5.10;99.90
4058;DHT22;2044;48.692;9.020;2023-01-19T06:03:36;-5.10;99.90
4058;DHT22;2044;48.692;9.020;2023-01-19T06:06:04;-4.90;99.90
4058;DHT22;2044;48.692;9.020;2023-01-19T06:08:31;-5.00;99.90
4058;DHT22;2044;48.692;9.020;2023-01-19T06:10:58;-5.00;99.90
4058;DHT22;2044;48.692;9.020;2023-01-19T06:13:24;-5.00;99.90
4058;DHT22;2044;48.692;9.020;2023-01-19T06:15:56;-4.90;99.90
4058;DHT22;2044;48.692;9.020;2023-01-19T06:18:24;-4.80;99.90
4058;DHT22;2044;48.692;9.020;2023-01-19T06:20:51;-4.70;99.90
4058;DHT22;2044;48.692;9.020;2023-01-19T06:23:23;-4.60;99.90
4058;DHT22;2044;48.692;9.020;2023-01-19T06:25:49;-4.60;99.90
4058;DHT22;2044;48.692;9.020;2023-01-19T06:28:16;-4.50;99.90
4058;DHT22;2044;48.692;9.020;2023-01-19T06:30:46;-4.60;99.90
4058;DHT22;2044;48.692;9.020;2023-01-19T06:33:13;-4.60;99.90
4058;DHT22;2044;48.692;9.020;2023-01-19T06:35:43;-4.50;99.90
4058;DHT22;2044;48.692;9.020;2023-01-19T06:38:10;-4.40;99.90
4058;DHT22;2044;48.692;9.020;2023-01-19T06:40:38;-4.30;99.90
4058;DHT22;2044;48.692;9.020;2023-01-19T06:43:05;-4.10;99.90
4058;DHT22;2044;48.692;9.020;2023-01-19T06:45:32;-4.10;99.90
4058;DHT22;2044;48.692;9.020;2023-01-19T06:47:59;-4.10;99.90
4058;DHT22;2044;48.692;9.020;2023-01-19T06:50:28;-4.20;99.90
4058;DHT22;2044;48.692;9.020;2023-01-19T06:52:56;-4.20;99.90
4058;DHT22;2044;48.692;9.020;2023-01-19T06:55:22;-4.10;99.90
4058;DHT22;2044;48.692;9.020;2023-01-19T06:57:55;-4.20;99.70
4058;DHT22;2044;48.692;9.020;2023-01-19T07:00:21;-4.20;81.90
4058;DHT22;2044;48.692;9.020;2023-01-19T07:02:48;-4.20;61.40
4058;DHT22;2044;48.692;9.020;2023-01-19T07:05:15;-4.20;9.60
4058;DHT22;2044;48.692;9.020;2023-01-19T07:07:43;-4.10;42.90
4058;DHT22;2044;48.692;9.020;2023-01-19T07:10:11;-4.10;18.90
4058;DHT22;2044;48.692;9.020;2023-01-19T07:12:40;-4.00;23.50
4058;DHT22;2044;48.692;9.020;2023-01-19T07:15:07;-4.10;6.30
4058;DHT22;2044;48.692;9.020;2023-01-19T07:17:36;-4.10;1.00
4058;DHT22;2044;48.692;9.020;2023-01-19T07:20:04;-4.10;1.00
4058;DHT22;2044;48.692;9.020;2023-01-19T07:22:31;-4.20;3.80
4058;DHT22;2044;48.692;9.020;2023-01-19T07:24:57;-4.30;1.00
4058;DHT22;2044;48.692;9.020;2023-01-19T07:27:25;-4.40;1.00
4058;DHT22;2044;48.692;9.020;2023-01-19T07:29:53;-4.30;1.00
4058;DHT22;2044;48.692;9.020;2023-01-19T07:32:19;-4.40;1.00
4058;DHT22;2044;48.692;9.020;2023-01-19T07:34:46;-4.50;1.00
4058;DHT22;2044;48.692;9.020;2023-01-19T07:37:13;-4.60;1.00
4058;DHT22;2044;48.692;9.020;2023-01-19T07:39:39;-4.60;1.00
4058;DHT22;2044;48.692;9.020;2023-01-19T07:42:06;-4.50;1.00
4058;DHT22;2044;48.692;9.020;2023-01-19T07:44:34;-4.60;1.00
4058;DHT22;2044;48.692;9.020;2023-01-19T07:47:01;-4.30;1.00
4058;DHT22;2044;48.692;9.020;2023-01-19T07:49:28;-4.30;1.00
4058;DHT22;2044;48.692;9.020;2023-01-19T07:51:54;-3.80;1.00
4058;DHT22;2044;48.692;9.020;2023-01-19T07:54:22;-3.80;1.00
4058;DHT22;2044;48.692;9.020;2023-01-19T07:56:48;-3.20;1.00
4058;DHT22;2044;48.692;9.020;2023-01-19T07:59:15;-3.20;1.00
4058;DHT22;2044;48.692;9.020;2023-01-19T08:01:43;-3.20;99.90
4058;DHT22;2044;48.692;9.020;2023-01-19T08:04:09;-3.10;99.90
4058;DHT22;2044;48.692;9.020;2023-01-19T08:06:38;-3.30;49.30
4058;DHT22;2044;48.692;9.020;2023-01-19T08:09:05;-3.10;99.00
4058;DHT22;2044;48.692;9.020;2023-01-19T08:11:32;-2.50;99.90
4058;DHT22;2044;48.692;9.020;2023-01-19T08:13:59;-2.60;1.00
4058;DHT22;2044;48.692;9.020;2023-01-19T08:16:26;-2.80;99.90
4058;DHT22;2044;48.692;9.020;2023-01-19T08:18:54;-2.80;1.00
4058;DHT22;2044;48.692;9.020;2023-01-19T08:21:21;-2.90;1.00
4058;DHT22;2044;48.692;9.020;2023-01-19T08:23:51;-3.10;99.90
4058;DHT22;2044;48.692;9.020;2023-01-19T08:26:18;-3.30;1.00
4058;DHT22;2044;48.692;9.020;2023-01-19T08:28:45;-3.40;1.00
4058;DHT22;2044;48.692;9.020;2023-01-19T08:31:12;-3.30;1.00
4058;DHT22;2044;48.692;9.020;2023-01-19T08:33:39;-3.00;50.70
4058;DHT22;2044;48.692;9.020;2023-01-19T08:36:07;-2.40;1.00
4058;DHT22;2044;48.692;9.020;2023-01-19T08:38:34;-2.00;1.50
4058;DHT22;2044;48.692;9.020;2023-01-19T08:41:04;-1.60;99.90
4058;DHT22;2044;48.692;9.020;2023-01-19T08:43:30;-1.70;99.90
4058;DHT22;2044;48.692;9.020;2023-01-19T08:45:57;-1.30;99.90
4058;DHT22;2044;48.692;9.020;2023-01-19T08:48:24;-0.90;38.50
4058;DHT22;2044;48.692;9.020;2023-01-19T08:50:51;-0.70;99.90
4058;DHT22;2044;48.692;9.020;2023-01-19T08:53:20;-1.00;1.00
4058;DHT22;2044;48.692;9.020;2023-01-19T08:55:48;-1.50;1.00
4058;DHT22;2044;48.692;9.020;2023-01-19T08:58:15;-1.50;1.00
4058;DHT22;2044;48.692;9.020;2023-01-19T09:00:42;-1.60;13.30
4058;DHT22;2044;48.692;9.020;2023-01-19T09:03:11;-1.70;1.00
4058;DHT22;2044;48.692;9.020;2023-01-19T09:05:38;-1.50;42.70
4058;DHT22;2044;48.692;9.020;2023-01-19T09:08:07;-1.10;99.90
4058;DHT22;2044;48.692;9.020;2023-01-19T09:10:36;-0.30;1.00
4058;DHT22;2044;48.692;9.020;2023-01-19T09:13:04;-1.30;99.90
4058;DHT22;2044;48.692;9.020;2023-01-19T09:15:33;-1.30;99.90
4058;DHT22;2044;48.692;9.020;2023-01-19T09:18:02;-1.60;1.00
4058;DHT22;2044;48.692;9.020;2023-01-19T09:20:29;-1.90;99.90
4058;DHT22;2044;48.692;9.020;2023-01-19T09:22:58;-0.60;88.00
4058;DHT22;2044;48.692;9.020;2023-01-19T09:25:25;-0.60;1.00
4058;DHT22;2044;48.692;9.020;2023-01-19T09:27:53;0.00;99.90
4058;DHT22;2044;48.692;9.020;2023-01-19T09:30:20;0.00;95.00
4058;DHT22;2044;48.692;9.020;2023-01-19T09:32:47;0.40;99.90
4058;DHT22;2044;48.692;9.020;2023-01-19T09:35:14;0.00;99.90
4058;DHT22;2044;48.692;9.020;2023-01-19T09:37:45;-0.10;1.00
4058;DHT22;2044;48.692;9.020;2023-01-19T09:40:12;-0.30;9.30
4058;DHT22;2044;48.692;9.020;2023-01-19T09:42:42;-0.10;99.90
4058;DHT22;2044;48.692;9.020;2023-01-19T09:45:15;-0.10;99.90
4058;DHT22;2044;48.692;9.020;2023-01-19T09:47:44;-0.20;99.90
4058;DHT22;2044;48.692;9.020;2023-01-19T09:50:19;-0.50;1.00
4058;DHT22;2044;48.692;9.020;2023-01-19T09:52:56;-0.90;99.90
4058;DHT22;2044;48.692;9.020;2023-01-19T09:55:26;-1.10;99.90
4058;DHT22;2044;48.692;9.020;2023-01-19T09:57:53;-1.10;1.00
4058;DHT22;2044;48.692;9.020;2023-01-19T10:00:21;-1.20;99.90
4058;DHT22;2044;48.692;9.020;2023-01-19T10:02:53;-1.10;1.00
4058;DHT22;2044;48.692;9.020;2023-01-19T10:05:25;-1.00;99.90
4058;DHT22;2044;48.692;9.020;2023-01-19T10:08:04;-0.80;36.50
4058;DHT22;2044;48.692;9.020;2023-01-19T10:10:34;-0.90;1.00
4058;DHT22;2044;48.692;9.020;2023-01-19T10:13:13;-1.20;99.90
4058;DHT22;2044;48.692;9.020;2023-01-19T10:15:51;-1.20;99.90
4058;DHT22;2044;48.692;9.020;2023-01-19T10:18:22;-1.10;99.90
4058;DHT22;2044;48.692;9.020;2023-01-19T10:21:00;-1.10;99.90
4058;DHT22;2044;48.692;9.020;2023-01-19T10:23:40;-1.10;99.90
4058;DHT22;2044;48.692;9.020;2023-01-19T10:26:11;-1.20;99.90
4058;DHT22;2044;48.692;9.020;2023-01-19T10:28:40;-1.20;99.90
4058;DHT22;2044;48.692;9.020;2023-01-19T10:31:08;-1.20;99.90
4058;DHT22;2044;48.692;9.020;2023-01-19T10:33:37;-1.20;99.90
4058;DHT22;2044;48.692;9.020;2023-01-19T10:36:09;-1.20;99.90
4058;DHT22;2044;48.692;9.020;2023-01-19T10:38:41;-1.30;99.90
4058;DHT22;2044;48.692;9.020;2023-01-19T10:41:12;-1.20;99.90
4058;DHT22;2044;48.692;9.020;2023-01-19T10:43:42;-1.20;99.90
4058;DHT22;2044;48.692;9.020;2023-01-19T10:46:20;-1.10;99.90
4058;DHT22;2044;48.692;9.020;2023-01-19T10:48:49;-1.00;1.00
4058;DHT22;2044;48.692;9.020;2023-01-19T10:51:16;-1.10;1.00
4058;DHT22;2044;48.692;9.020;2023-01-19T10:53:53;-1.00;1.00
4058;DHT22;2044;48.692;9.020;2023-01-19T10:56:22;-0.90;99.90
4058;DHT22;2044;48.692;9.020;2023-01-19T10:58:49;-0.90;1.00
4058;DHT22;2044;48.692;9.020;2023-01-19T11:01:19;-1.10;99.90
4058;DHT22;2044;48.692;9.020;2023-01-19T11:03:46;-1.20;99.90
4058;DHT22;2044;48.692;9.020;2023-01-19T11:06:20;-1.20;1.00
4058;DHT22;2044;48.692;9.020;2023-01-19T11:08:47;-0.60;1.00
4058;DHT22;2044;48.692;9.020;2023-01-19T11:11:16;-0.50;1.00
4058;DHT22;2044;48.692;9.020;2023-01-19T11:13:43;-0.30;99.90
4058;DHT22;2044;48.692;9.020;2023-01-19T11:16:16;0.20;5.20
4058;DHT22;2044;48.692;9.020;2023-01-19T11:18:51;0.40;28.80
4058;DHT22;2044;48.692;9.020;2023-01-19T11:21:22;0.50;99.90
4058;DHT22;2044;48.692;9.020;2023-01-19T11:23:52;0.40;1.00
4058;DHT22;2044;48.692;9.020;2023-01-19T11:26:25;0.10;1.00
4058;DHT22;2044;48.692;9.020;2023-01-19T11:28:54;0.40;1.00
4058;DHT22;2044;48.692;9.020;2023-01-19T11:31:31;1.10;1.00
4058;DHT22;2044;48.692;9.020;2023-01-19T11:34:00;0.80;1.00
4058;DHT22;2044;48.692;9.020;2023-01-19T11:36:29;1.10;99.90
4058;DHT22;2044;48.692;9.020;2023-01-19T11:38:57;1.00;1.00
4058;DHT22;2044;48.692;9.020;2023-01-19T11:41:27;1.40;30.30
4058;DHT22;2044;48.692;9.020;2023-01-19T11:43:56;1.50;99.90
4058;DHT22;2044;48.692;9.020;2023-01-19T11:46:26;1.30;99.90
4058;DHT22;2044;48.692;9.020;2023-01-19T11:49:02;0.60;1.00
4058;DHT22;2044;48.692;9.020;2023-01-19T11:51:34;0.50;1.00
4058;DHT22;2044;48.692;9.020;2023-01-19T11:54:12;0.60;1.00
4058;DHT22;2044;48.692;9.020;2023-01-19T11:56:41;0.10;1.00
4058;DHT22;2044;48.692;9.020;2023-01-19T11:59:11;0.10;1.00
4058;DHT22;2044;48.692;9.020;2023-01-19T12:01:43;-0.10;1.00
4058;DHT22;2044;48.692;9.020;2023-01-19T12:04:15;0.10;99.90
4058;DHT22;2044;48.692;9.020;2023-01-19T12:06:45;0.10;1.00
4058;DHT22;2044;48.692;9.020;2023-01-19T12:09:17;0.10;14.50
4058;DHT22;2044;48.692;9.020;2023-01-19T12:11:47;-0.20;99.90
4058;DHT22;2044;48.692;9.020;2023-01-19T12:14:18;-0.50;99.90
4058;DHT22;2044;48.692;9.020;2023-01-19T12:16:50;-0.50;99.90
4058;DHT22;2044;48.692;9.020;2023-01-19T12:19:22;-0.30;99.90
4058;DHT22;2044;48.692;9.020;2023-01-19T12:21:50;-0.40;74.40
4058;DHT22;2044;48.692;9.020;2023-01-19T12:24:25;-0.30;22.80
4058;DHT22;2044;48.692;9.020;2023-01-19T12:26:56;-0.30;99.90
4058;DHT22;2044;48.692;9.020;2023-01-19T12:29:24;-0.20;1.00
4058;DHT22;2044;48.692;9.020;2023-01-19T12:32:17;-0.20;1.00
4058;DHT22;2044;48.692;9.020;2023-01-19T12:34:46;-0.10;1.00
4058;DHT22;2044;48.692;9.020;2023-01-19T12:37:36;-0.20;1.00
4058;DHT22;2044;48.692;9.020;2023-01-19T12:42:50;-0.20;1.00
4058;DHT22;2044;48.692;9.020;2023-01-19T12:45:21;-0.20;99.90
4058;DHT22;2044;48.692;9.020;2023-01-19T12:47:50;-0.10;1.00
4058;DHT22;2044;48.692;9.020;2023-01-19T12:50:20;-0.20;99.90
4058;DHT22;2044;48.692;9.020;2023-01-19T12:52:49;-0.20;1.00
4058;DHT22;2044;48.692;9.020;2023-01-19T12:55:23;-0.30;99.90
4058;DHT22;2044;48.692;9.020;2023-01-19T12:57:59;-0.30;99.90
4058;DHT22;2044;48.692;9.020;2023-01-19T13:00:35;-0.20;1.00
4058;DHT22;2044;48.692;9.020;2023-01-19T13:03:05;-0.20;51.90
4058;DHT22;2044;48.692;9.020;2023-01-19T13:05:53;-0.20;1.00
4058;DHT22;2044;48.692;9.020;2023-01-19T13:08:22;-0.10;1.00
4058;DHT22;2044;48.692;9.020;2023-01-19T13:11:15;-0.10;99.90
4058;DHT22;2044;48.692;9.020;2023-01-19T13:13:43;-0.20;99.90
4058;DHT22;2044;48.692;9.020;2023-01-19T13:19:16;-0.20;99.90
4058;DHT22;2044;48.692;9.020;2023-01-19T13:21:46;-0.20;99.90
4058;DHT22;2044;48.692;9.020;2023-01-19T13:24:15;-0.20;99.90
4058;DHT22;2044;48.692;9.020;2023-01-19T13:26:53;-0.20;1.00
4058;DHT22;2044;48.692;9.020;2023-01-19T13:29:25;-0.20;3.50
4058;DHT22;2044;48.692;9.020;2023-01-19T13:31:54;-0.20;18.20
4058;DHT22;2044;48.692;9.020;2023-01-19T13:34:28;-0.20;1.00
4058;DHT22;2044;48.692;9.020;2023-01-19T13:36:56;-0.20;99.90
4058;DHT22;2044;48.692;9.020;2023-01-19T13:39:27;-0.20;99.90
4058;DHT22;2044;48.692;9.020;2023-01-19T13:41:56;-0.20;1.00
4058;DHT22;2044;48.692;9.020;2023-01-19T13:44:26;-0.20;1.00
4058;DHT22;2044;48.692;9.020;2023-01-19T13:46:54;-0.20;1.00
4058;DHT22;2044;48.692;9.020;2023-01-19T13:49:26;-0.20;1.00
4058;DHT22;2044;48.692;9.020;2023-01-19T13:52:13;-0.20;1.00
4058;DHT22;2044;48.692;9.020;2023-01-19T13:54:48;-0.20;1.00
4058;DHT22;2044;48.692;9.020;2023-01-19T13:57:22;-0.20;1.00
4058;DHT22;2044;48.692;9.020;2023-01-19T14:00:02;-0.20;99.90
4058;DHT22;2044;48.692;9.020;2023-01-19T14:02:29;-0.30;99.90
4058;DHT22;2044;48.692;9.020;2023-01-19T14:04:56;-0.30;1.00
4058;DHT22;2044;48.692;9.020;2023-01-19T14:07:24;-0.20;1.00
4058;DHT22;2044;48.692;9.020;2023-01-19T14:10:00;-0.20;1.00
4058;DHT22;2044;48.692;9.020;2023-01-19T14:12:27;-0.20;1.00
4058;DHT22;2044;48.692;9.020;2023-01-19T14:14:54;-0.30;99.90
4058;DHT22;2044;48.692;9.020;2023-01-19T14:17:23;-0.30;1.00
4058;DHT22;2044;48.692;9.020;2023-01-19T14:19:52;-0.20;1.00
4058;DHT22;2044;48.692;9.020;2023-01-19T14:22:19;-0.30;1.00
4058;DHT22;2044;48.692;9.020;2023-01-19T14:24:47;-0.40;1.00
4058;DHT22;2044;48.692;9.020;2023-01-19T14:27:19;-0.40;1.00
4058;DHT22;2044;48.692;9.020;2023-01-19T14:29:47;-0.40;27.30
4058;DHT22;2044;48.692;9.020;2023-01-19T14:32:16;-0.40;1.00
4058;DHT22;2044;48.692;9.020;2023-01-19T14:34:45;-0.40;1.00
4058;DHT22;2044;48.692;9.020;2023-01-19T14:37:16;-0.40;99.90
4058;DHT22;2044;48.692;9.020;2023-01-19T14:39:47;-0.40;99.90
4058;DHT22;2044;48.692;9.020;2023-01-19T14:42:24;-0.50;1.00
4058;DHT22;2044;48.692;9.020;2023-01-19T14:44:54;-0.50;95.20
4058;DHT22;2044;48.692;9.020;2023-01-19T14:47:32;-0.50;62.50
4058;DHT22;2044;48.692;9.020;2023-01-19T14:50:04;-0.50;23.30
4058;DHT22;2044;48.692;9.020;2023-01-19T14:52:36;-0.50;99.90
4058;DHT22;2044;48.692;9.020;2023-01-19T14:55:14;-0.50;85.00
4058;DHT22;2044;48.692;9.020;2023-01-19T14:57:42;-0.60;1.00
4058;DHT22;2044;48.692;9.020;2023-01-19T15:00:13;-0.50;1.00
4058;DHT22;2044;48.692;9.020;2023-01-19T15:02:42;-0.50;99.90
4058;DHT22;2044;48.692;9.020;2023-01-19T15:05:09;-0.50;1.00
4058;DHT22;2044;48.692;9.020;2023-01-19T15:07:36;-0.50;99.90
4058;DHT22;2044;48.692;9.020;2023-01-19T15:10:11;-0.50;56.50
4058;DHT22;2044;48.692;9.020;2023-01-19T15:12:40;-0.50;99.90
4058;DHT22;2044;48.692;9.020;2023-01-19T15:15:13;-0.50;99.90
4058;DHT22;2044;48.692;9.020;2023-01-19T15:17:40;-0.50;59.20
4058;DHT22;2044;48.692;9.020;2023-01-19T15:20:12;-0.50;34.90
4058;DHT22;2044;48.692;9.020;2023-01-19T15:22:39;-0.50;55.70
4058;DHT22;2044;48.692;9.020;2023-01-19T15:25:11;-0.50;99.90
4058;DHT22;2044;48.692;9.020;2023-01-19T15:27:37;-0.60;99.90
4058;DHT22;2044;48.692;9.020;2023-01-19T15:30:11;-0.50;99.90
4058;DHT22;2044;48.692;9.020;2023-01-19T15:32:38;-0.60;99.90
4058;DHT22;2044;48.692;9.020;2023-01-19T15:35:11;-0.60;99.90
4058;DHT22;2044;48.692;9.020;2023-01-19T15:37:38;-0.60;99.90
4058;DHT22;2044;48.692;9.020;2023-01-19T15:40:08;-0.60;99.90
4058;DHT22;2044;48.692;9.020;2023-01-19T15:42:35;-0.60;99.90
4058;DHT22;2044;48.692;9.020;2023-01-19T15:45:21;-0.60;1.00
4058;DHT22;2044;48.692;9.020;2023-01-19T15:47:52;-0.60;1.00
4058;DHT22;2044;48.692;9.020;2023-01-19T15:50:19;-0.60;1.00
4058;DHT22;2044;48.692;9.020;2023-01-19T15:52:46;-0.60;1.00
4058;DHT22;2044;48.692;9.020;2023-01-19T15:55:14;-0.60;1.00
4058;DHT22;2044;48.692;9.020;2023-01-19T15:57:40;-0.60;1.00
4058;DHT22;2044;48.692;9.020;2023-01-19T16:00:09;-0.70;3.20
4058;DHT22;2044;48.692;9.020;2023-01-19T16:02:36;-0.60;19.10
4058;DHT22;2044;48.692;9.020;2023-01-19T16:05:03;-0.70;90.20
4058;DHT22;2044;48.692;9.020;2023-01-19T16:07:31;-0.70;99.90
4058;DHT22;2044;48.692;9.020;2023-01-19T16:09:58;-0.70;91.30
4058;DHT22;2044;48.692;9.020;2023-01-19T16:12:27;-0.70;99.90
4058;DHT22;2044;48.692;9.020;2023-01-19T16:14:54;-0.70;99.90
4058;DHT22;2044;48.692;9.020;2023-01-19T16:17:20;-0.70;99.90
4058;DHT22;2044;48.692;9.020;2023-01-19T16:19:47;-0.70;3.80
4058;DHT22;2044;48.692;9.020;2023-01-19T16:22:14;-0.70;1.00
4058;DHT22;2044;48.692;9.020;2023-01-19T16:24:41;-0.70;1.00
4058;DHT22;2044;48.692;9.020;2023-01-19T16:27:07;-0.70;99.90
4058;DHT22;2044;48.692;9.020;2023-01-19T16:29:36;-0.80;99.90